createdAt,value
2023-02-05T00:01:39.083Z,103317.25
2023-02-05T00:04:05.450Z,103321.72
2023-02-05T00:06:31.733Z,103318.22
2023-02-05T00:08:58.186Z,103322.81
2023-02-05T00:11:24.538Z,103317.34
2023-02-05T00:13:50.872Z,103318.34
2023-02-05T00:16:17.372Z,103311.22
2023-02-05T00:18:43.963Z,103306.81
2023-02-05T00:21:10.393Z,103311.22
2023-02-05T00:23:37.834Z,103301.63
2023-02-05T00:26:04.267Z,103305.03
2023-02-05T00:28:31.304Z,103307.69
2023-02-05T00:30:57.683Z,103312.16
2023-02-05T00:33:24.032Z,103308.66
2023-02-05T00:35:50.692Z,103315.91
2023-02-05T00:38:17.723Z,103309.59
2023-02-05T00:40:44.171Z,103305.38
2023-02-05T00:43:10.692Z,103303.59
2023-02-05T00:45:37.024Z,103310.72
2023-02-05T00:48:03.576Z,103307.94
2023-02-05T00:50:29.954Z,103311.56
2023-02-05T00:52:56.563Z,103315.91
2023-02-05T00:55:23.335Z,103313.50
2023-02-05T00:57:49.933Z,103309.88
2023-02-05T01:00:16.689Z,103312.53
2023-02-05T01:02:43.068Z,103309.88
2023-02-05T01:05:09.561Z,103307.22
2023-02-05T01:07:36.171Z,103305.50
2023-02-05T01:10:02.554Z,103308.16
2023-02-05T01:12:29.402Z,103299.34
2023-02-05T01:14:55.824Z,103298.50
2023-02-05T01:17:22.116Z,103296.81
2023-02-05T01:19:48.519Z,103298.50
2023-02-05T01:22:15.147Z,103290.50
2023-02-05T01:24:41.538Z,103285.31
2023-02-05T01:27:07.900Z,103269.31
2023-02-05T01:29:34.208Z,103268.50
2023-02-05T01:32:00.573Z,103271.16
2023-02-05T01:34:27.813Z,103268.50
2023-02-05T01:36:54.537Z,103249.00
2023-02-05T01:39:21.201Z,103249.88
2023-02-05T01:41:47.502Z,103243.69
2023-02-05T01:44:13.921Z,103253.50
2023-02-05T01:46:40.367Z,103246.47
2023-02-05T01:49:06.794Z,103250.00
2023-02-05T01:51:33.272Z,103252.66
2023-02-05T01:53:59.815Z,103244.78
2023-02-05T01:56:26.290Z,103241.16
2023-02-05T01:58:52.905Z,103237.66
2023-02-05T02:01:19.338Z,103248.31
2023-02-05T02:03:46.261Z,103238.59
2023-02-05T02:06:15.059Z,103248.31
2023-02-05T02:08:41.664Z,103247.56
2023-02-05T02:11:08.072Z,103244.91
2023-02-05T02:13:34.494Z,103243.22
2023-02-05T02:16:01.032Z,103237.78
2023-02-05T02:18:27.477Z,103231.47
2023-02-05T02:20:53.941Z,103231.59
2023-02-05T02:23:20.377Z,103219.25
2023-02-05T02:25:47.077Z,103211.28
2023-02-05T02:28:13.524Z,103217.47
2023-02-05T02:30:39.927Z,103209.47
2023-02-05T02:33:06.573Z,103198.81
2023-02-05T02:35:33.538Z,103199.78
2023-02-05T02:38:00.114Z,103198.09
2023-02-05T02:40:27.161Z,103208.03
2023-02-05T02:42:53.972Z,103198.09
2023-02-05T02:45:21.033Z,103201.59
2023-02-05T02:47:47.624Z,103188.41
2023-02-05T02:50:14.188Z,103207.91
2023-02-05T02:52:40.996Z,103205.38
2023-02-05T02:55:09.303Z,103204.50
2023-02-05T02:57:37.356Z,103204.50
2023-02-05T03:00:04.303Z,103195.69
2023-02-05T03:02:33.667Z,103191.22
2023-02-05T03:05:01.605Z,103186.75
2023-02-05T03:07:34.377Z,103186.75
2023-02-05T03:10:01.835Z,103198.22
2023-02-05T03:12:28.434Z,103181.41
2023-02-05T03:14:55.799Z,103191.09
2023-02-05T03:17:23.267Z,103186.75
2023-02-05T03:19:50.025Z,103195.56
2023-02-05T03:22:17.576Z,103197.38
2023-02-05T03:24:44.303Z,103185.88
2023-02-05T03:27:11.651Z,103191.22
2023-02-05T03:29:38.370Z,103186.00
2023-02-05T03:32:05.228Z,103183.34
2023-02-05T03:34:31.811Z,103180.56
2023-02-05T03:37:00.368Z,103178.75
2023-02-05T03:39:27.784Z,103179.69
2023-02-05T03:41:54.874Z,103182.53
2023-02-05T03:44:21.610Z,103188.53
2023-02-05T03:46:48.698Z,103197.63
2023-02-05T03:49:18.002Z,103214.47
2023-02-05T03:51:44.596Z,103208.97
2023-02-05T03:54:11.280Z,103200.28
2023-02-05T03:56:40.227Z,103194.00
2023-02-05T03:59:07.557Z,103202.09
2023-02-05T04:01:34.230Z,103211.06
2023-02-05T04:04:03.285Z,103206.47
2023-02-05T04:06:30.582Z,103204.75
2023-02-05T04:08:58.250Z,103205.75
2023-02-05T04:11:26.775Z,103209.97
2023-02-05T04:13:55.802Z,103204.06
2023-02-05T04:16:23.088Z,103210.94
2023-02-05T04:18:50.449Z,103207.53
2023-02-05T04:21:18.682Z,103215.53
2023-02-05T04:23:45.772Z,103221.72
2023-02-05T04:26:13.092Z,103219.16
2023-02-05T04:28:40.505Z,103229.09
2023-02-05T04:31:07.822Z,103229.00
2023-02-05T04:33:34.413Z,103241.56
2023-02-05T04:36:01.108Z,103239.75
2023-02-05T04:38:30.440Z,103247.75
2023-02-05T04:40:57.106Z,103253.06
2023-02-05T04:43:23.752Z,103260.19
2023-02-05T04:45:50.451Z,103255.59
2023-02-05T04:48:17.096Z,103255.59
2023-02-05T04:50:43.689Z,103253.88
2023-02-05T04:53:10.323Z,103253.06
2023-02-05T04:55:37.224Z,103250.41
2023-02-05T04:58:04.056Z,103253.19
2023-02-05T05:00:31.197Z,103254.88
2023-02-05T05:02:57.955Z,103255.59
2023-02-05T05:05:24.796Z,103247.88
2023-02-05T05:07:51.313Z,103234.56
2023-02-05T05:10:18.659Z,103236.63
2023-02-05T05:12:46.085Z,103243.50
2023-02-05T05:15:13.202Z,103238.19
2023-02-05T05:17:41.735Z,103237.22
2023-02-05T05:20:08.685Z,103230.31
2023-02-05T05:22:35.282Z,103225.84
2023-02-05T05:25:01.983Z,103224.03
2023-02-05T05:27:29.938Z,103233.00
2023-02-05T05:29:56.575Z,103232.13
2023-02-05T05:32:23.408Z,103228.66
2023-02-05T05:34:50.338Z,103228.78
2023-02-05T05:37:17.457Z,103233.09
2023-02-05T05:39:45.376Z,103225.25
2023-02-05T05:42:12.224Z,103225.00
2023-02-05T05:44:39.495Z,103221.59
2023-02-05T05:47:06.146Z,103222.47
2023-02-05T05:49:32.850Z,103231.44
2023-02-05T05:51:59.795Z,103230.69
2023-02-05T05:54:26.986Z,103235.78
2023-02-05T05:56:53.739Z,103236.00
2023-02-05T05:59:21.406Z,103242.91
2023-02-05T06:01:48.278Z,103237.69
2023-02-05T06:04:15.030Z,103245.94
2023-02-05T06:06:42.476Z,103256.31
2023-02-05T06:09:09.129Z,103252.97
2023-02-05T06:11:36.186Z,103246.78
2023-02-05T06:14:04.074Z,103242.91
2023-02-05T06:16:33.164Z,103244.13
2023-02-05T06:18:59.997Z,103236.13
2023-02-05T06:21:26.741Z,103227.78
2023-02-05T06:23:53.693Z,103213.75
2023-02-05T06:26:21.350Z,103224.38
2023-02-05T06:28:48.477Z,103219.47
2023-02-05T06:31:18.300Z,103229.97
2023-02-05T06:33:45.499Z,103230.81
2023-02-05T06:36:13.019Z,103232.66
2023-02-05T06:38:39.711Z,103234.09
2023-02-05T06:41:06.388Z,103241.47
2023-02-05T06:43:33.216Z,103244.84
2023-02-05T06:46:00.166Z,103245.09
2023-02-05T06:48:26.913Z,103243.03
2023-02-05T06:50:54.812Z,103248.63
2023-02-05T06:53:22.036Z,103251.28
2023-02-05T06:55:48.855Z,103256.59
2023-02-05T06:58:16.393Z,103251.16
2023-02-05T07:00:43.399Z,103258.41
2023-02-05T07:03:10.342Z,103254.91
2023-02-05T07:05:37.568Z,103265.78
2023-02-05T07:08:04.519Z,103278.00
2023-02-05T07:10:31.313Z,103277.25
2023-02-05T07:12:59.617Z,103276.06
2023-02-05T07:15:26.432Z,103282.22
2023-02-05T07:17:53.460Z,103281.88
2023-02-05T07:20:20.148Z,103268.81
2023-02-05T07:22:49.113Z,103268.69
2023-02-05T07:25:16.253Z,103270.72
2023-02-05T07:27:43.399Z,103260.22
2023-02-05T07:30:10.528Z,103264.69
2023-02-05T07:32:37.342Z,103266.63
2023-02-05T07:35:04.299Z,103273.03
2023-02-05T07:37:31.325Z,103273.31
2023-02-05T07:39:57.842Z,103285.03
2023-02-05T07:42:24.693Z,103284.31
2023-02-05T07:44:51.664Z,103274.63
2023-02-05T07:47:18.368Z,103270.28
2023-02-05T07:49:44.984Z,103269.56
2023-02-05T07:52:11.782Z,103268.72
2023-02-05T07:54:38.423Z,103269.66
2023-02-05T07:57:06.929Z,103266.19
2023-02-05T07:59:33.843Z,103259.16
2023-02-05T08:02:00.450Z,103249.47
2023-02-05T08:04:27.016Z,103253.81
2023-02-05T08:06:53.682Z,103263.66
2023-02-05T08:09:20.968Z,103258.31
2023-02-05T08:11:47.654Z,103261.97
2023-02-05T08:14:14.303Z,103262.78
2023-02-05T08:16:41.162Z,103268.09
2023-02-05T08:19:07.750Z,103253.00
2023-02-05T08:21:34.356Z,103260.00
2023-02-05T08:24:01.549Z,103260.13
2023-02-05T08:26:28.108Z,103259.16
2023-02-05T08:28:54.609Z,103257.34
2023-02-05T08:31:22.193Z,103265.44
2023-02-05T08:33:48.739Z,103259.28
2023-02-05T08:36:17.225Z,103247.81
2023-02-05T08:38:43.642Z,103245.25
2023-02-05T08:41:10.169Z,103242.59
2023-02-05T08:43:37.756Z,103241.78
2023-02-05T08:46:04.318Z,103227.63
2023-02-05T08:48:31.061Z,103226.63
2023-02-05T08:51:00.048Z,103222.16
2023-02-05T08:53:26.644Z,103217.84
2023-02-05T08:55:53.078Z,103216.97
2023-02-05T08:58:19.969Z,103217.94
2023-02-05T09:00:47.359Z,103216.13
2023-02-05T09:03:16.132Z,103216.97
2023-02-05T09:05:42.689Z,103224.94
2023-02-05T09:08:09.207Z,103224.84
2023-02-05T09:10:35.726Z,103222.53
2023-02-05T09:13:02.315Z,103219.50
2023-02-05T09:15:28.875Z,103220.50
2023-02-05T09:17:55.398Z,103220.50
2023-02-05T09:20:22.002Z,103229.19
2023-02-05T09:22:48.682Z,103224.09
2023-02-05T09:25:15.389Z,103222.41
2023-02-05T09:27:42.185Z,103219.88
2023-02-05T09:30:08.758Z,103226.88
2023-02-05T09:32:35.693Z,103220.84
2023-02-05T09:35:02.299Z,103228.72
2023-02-05T09:37:29.077Z,103225.19
2023-02-05T09:40:20.121Z,103223.38
2023-02-05T09:42:42.658Z,103227.16
2023-02-05T09:45:09.370Z,103216.50
2023-02-05T09:47:35.989Z,103218.44
2023-02-05T09:50:02.995Z,103215.66
2023-02-05T09:52:29.719Z,103212.97
2023-02-05T09:54:58.455Z,103203.56
2023-02-05T09:57:25.254Z,103197.41
2023-02-05T09:59:51.831Z,103199.09
2023-02-05T10:02:19.800Z,103195.69
2023-02-05T10:04:46.240Z,103188.56
2023-02-05T10:07:12.735Z,103188.56
2023-02-05T10:09:39.572Z,103186.03
2023-02-05T10:12:06.100Z,103179.63
2023-02-05T10:14:32.785Z,103179.63
2023-02-05T10:16:59.671Z,103176.25
2023-02-05T10:19:27.514Z,103172.84
2023-02-05T10:21:54.270Z,103164.41
2023-02-05T10:24:20.925Z,103171.28
2023-02-05T10:26:47.493Z,103166.78
2023-02-05T10:29:14.307Z,103163.44
2023-02-05T10:31:40.977Z,103157.25
2023-02-05T10:34:07.616Z,103154.72
2023-02-05T10:36:34.416Z,103152.19
2023-02-05T10:39:03.675Z,103155.69
2023-02-05T10:41:31.915Z,103160.19
2023-02-05T10:44:02.648Z,103164.66
2023-02-05T10:46:30.679Z,103166.44
2023-02-05T10:48:57.564Z,103166.56
2023-02-05T10:51:27.481Z,103165.84
2023-02-05T10:53:54.125Z,103164.19
2023-02-05T10:56:20.757Z,103157.03
2023-02-05T10:58:49.265Z,103157.13
2023-02-05T11:01:15.849Z,103159.81
2023-02-05T11:03:42.581Z,103154.63
2023-02-05T11:06:09.330Z,103150.88
2023-02-05T11:08:35.973Z,103150.03
2023-02-05T11:11:02.532Z,103145.81
2023-02-05T11:13:29.683Z,103143.03
2023-02-05T11:15:56.342Z,103147.47
2023-02-05T11:18:23.032Z,103141.47
2023-02-05T11:20:49.691Z,103135.16
2023-02-05T11:23:16.295Z,103134.31
2023-02-05T11:25:44.879Z,103135.38
2023-02-05T11:28:11.652Z,103134.44
2023-02-05T11:30:54.312Z,103134.44
2023-02-05T11:33:21.227Z,103128.38
2023-02-05T11:35:50.296Z,103130.06
2023-02-05T11:38:20.116Z,103130.06
2023-02-05T11:40:46.787Z,103126.69
2023-02-05T11:43:13.798Z,103126.56
2023-02-05T11:45:40.518Z,103127.38
2023-02-05T11:48:10.309Z,103129.34
2023-02-05T11:50:36.728Z,103134.53
2023-02-05T11:53:03.745Z,103132.81
2023-02-05T11:55:30.383Z,103138.03
2023-02-05T11:57:56.909Z,103132.72
2023-02-05T12:00:23.700Z,103130.06
2023-02-05T12:02:50.840Z,103123.16
2023-02-05T12:05:17.468Z,103126.69
2023-02-05T12:07:44.461Z,103133.81
2023-02-05T12:10:11.091Z,103130.31
2023-02-05T12:12:37.768Z,103132.13
2023-02-05T12:15:19.461Z,103140.09
2023-02-05T12:17:46.459Z,103130.31
2023-02-05T12:20:13.635Z,103133.09
2023-02-05T12:22:40.348Z,103124.16
2023-02-05T12:25:07.239Z,103128.59
2023-02-05T12:27:33.943Z,103131.16
2023-02-05T12:30:00.592Z,103126.69
2023-02-05T12:32:27.294Z,103128.38
2023-02-05T12:34:54.207Z,103125.81
2023-02-05T12:37:21.248Z,103117.72
2023-02-05T12:39:48.087Z,103112.28
2023-02-05T12:42:15.060Z,103106.25
2023-02-05T12:44:41.931Z,103107.09
2023-02-05T12:47:08.581Z,103097.31
2023-02-05T12:49:35.372Z,103107.09
2023-02-05T12:52:02.108Z,103107.94
2023-02-05T12:54:29.940Z,103106.97
2023-02-05T12:56:59.010Z,103096.47
2023-02-05T12:59:27.825Z,103096.47
2023-02-05T13:01:54.452Z,103100.91
2023-02-05T13:04:21.148Z,103099.13
2023-02-05T13:06:47.695Z,103105.41
2023-02-05T13:09:14.575Z,103112.41
2023-02-05T13:11:41.162Z,103112.28
2023-02-05T13:14:07.914Z,103116.75
2023-02-05T13:16:34.939Z,103108.91
2023-02-05T13:19:01.813Z,103113.38
2023-02-05T13:21:33.155Z,103106.41
2023-02-05T13:23:59.899Z,103112.41
2023-02-05T13:26:29.071Z,103119.41
2023-02-05T13:28:55.900Z,103125.81
2023-02-05T13:31:22.624Z,103114.09
2023-02-05T13:33:49.404Z,103115.81
2023-02-05T13:36:16.067Z,103118.22
2023-02-05T13:38:42.992Z,103122.72
2023-02-05T13:41:09.634Z,103124.53
2023-02-05T13:43:36.673Z,103120.06
2023-02-05T13:46:04.753Z,103124.28
2023-02-05T13:48:34.004Z,103123.66
2023-02-05T13:51:03.492Z,103121.75
2023-02-05T13:53:30.379Z,103124.53
2023-02-05T13:55:57.227Z,103121.00
2023-02-05T13:58:24.337Z,103123.66
2023-02-05T14:00:51.213Z,103126.44
2023-02-05T14:03:17.855Z,103128.16
2023-02-05T14:05:44.722Z,103128.16
2023-02-05T14:08:11.548Z,103123.53
2023-02-05T14:10:39.698Z,103128.97
2023-02-05T14:13:06.888Z,103126.22
2023-02-05T14:15:33.899Z,103123.44
2023-02-05T14:18:01.141Z,103136.97
2023-02-05T14:20:27.843Z,103130.81
2023-02-05T14:22:54.475Z,103146.78
2023-02-05T14:25:21.332Z,103145.81
2023-02-05T14:27:48.517Z,103144.19
2023-02-05T14:30:15.276Z,103146.97
2023-02-05T14:32:43.107Z,103157.63
2023-02-05T14:35:09.893Z,103154.97
2023-02-05T14:37:36.325Z,103149.63
2023-02-05T14:40:02.918Z,103143.63
2023-02-05T14:42:29.490Z,103154.09
2023-02-05T14:44:55.952Z,103149.63
2023-02-05T14:47:22.540Z,103144.31
2023-02-05T14:49:49.060Z,103135.63
2023-02-05T14:52:15.668Z,103128.38
2023-02-05T14:54:42.245Z,103126.44
2023-02-05T14:57:08.699Z,103128.25
2023-02-05T14:59:35.334Z,103141.91
2023-02-05T15:02:02.056Z,103149.63
2023-02-05T15:04:28.717Z,103143.63
2023-02-05T15:06:55.320Z,103141.06
2023-02-05T15:09:21.924Z,103135.63
2023-02-05T15:11:48.325Z,103128.59
2023-02-05T15:14:15.579Z,103125.81
2023-02-05T15:16:42.264Z,103126.81
2023-02-05T15:19:08.781Z,103127.91
2023-02-05T15:21:35.231Z,103128.59
2023-02-05T15:24:01.789Z,103113.63
2023-02-05T15:26:28.693Z,103112.06
2023-02-05T15:28:55.294Z,103120.03
2023-02-05T15:31:21.901Z,103105.06
2023-02-05T15:33:48.419Z,103111.22
2023-02-05T15:36:15.108Z,103110.50
2023-02-05T15:38:41.678Z,103121.03
2023-02-05T15:41:08.198Z,103129.13
2023-02-05T15:43:35.205Z,103123.56
2023-02-05T15:46:01.786Z,103136.97
2023-02-05T15:48:28.458Z,103129.00
2023-02-05T15:50:55.975Z,103129.97
2023-02-05T15:53:22.588Z,103147.97
2023-02-05T15:55:49.869Z,103155.69
2023-02-05T15:58:16.358Z,103156.56
2023-02-05T16:00:43.076Z,103155.69
2023-02-05T16:03:09.918Z,103161.03
2023-02-05T16:05:36.770Z,103177.94
2023-02-05T16:08:03.270Z,103177.09
2023-02-05T16:10:29.819Z,103186.03
2023-02-05T16:12:56.280Z,103186.88
2023-02-05T16:15:22.813Z,103187.72
2023-02-05T16:17:49.316Z,103186.88
2023-02-05T16:20:15.804Z,103181.69
2023-02-05T16:22:42.370Z,103190.50
2023-02-05T16:25:08.779Z,103190.50
2023-02-05T16:27:35.173Z,103187.00
2023-02-05T16:30:01.799Z,103192.34
2023-02-05T16:32:28.398Z,103188.09
2023-02-05T16:34:54.857Z,103194.25
2023-02-05T16:37:21.530Z,103209.38
2023-02-05T16:39:48.176Z,103203.31
2023-02-05T16:42:17.077Z,103209.50
2023-02-05T16:44:43.562Z,103208.50
2023-02-05T16:47:10.086Z,103205.97
2023-02-05T16:49:36.564Z,103207.66
2023-02-05T16:52:03.203Z,103205.97
2023-02-05T16:54:29.696Z,103206.94
2023-02-05T16:56:56.476Z,103200.66
2023-02-05T16:59:23.047Z,103187.47
2023-02-05T17:01:49.596Z,103202.59
2023-02-05T17:04:16.437Z,103208.75
2023-02-05T17:06:43.057Z,103201.75
2023-02-05T17:09:09.850Z,103216.84
2023-02-05T17:11:36.592Z,103218.56
2023-02-05T17:14:03.259Z,103218.56
2023-02-05T17:16:30.258Z,103217.69
2023-02-05T17:18:56.774Z,103216.00
2023-02-05T17:21:23.306Z,103217.81
2023-02-05T17:23:49.900Z,103220.69
2023-02-05T17:26:16.609Z,103227.72
2023-02-05T17:28:43.887Z,103230.50
2023-02-05T17:31:10.486Z,103231.34
2023-02-05T17:33:37.418Z,103224.34
2023-02-05T17:36:04.061Z,103231.34
2023-02-05T17:38:30.988Z,103227.97
2023-02-05T17:40:57.639Z,103227.97
2023-02-05T17:43:24.145Z,103221.78
2023-02-05T17:45:51.115Z,103221.78
2023-02-05T17:48:17.921Z,103224.34
2023-02-05T17:50:44.518Z,103223.63
2023-02-05T17:53:10.970Z,103223.75
2023-02-05T17:55:37.752Z,103216.59
2023-02-05T17:58:04.463Z,103214.78
2023-02-05T18:00:30.920Z,103209.34
2023-02-05T18:02:57.540Z,103220.84
2023-02-05T18:05:24.273Z,103214.78
2023-02-05T18:07:50.903Z,103215.75
2023-02-05T18:10:17.830Z,103205.13
2023-02-05T18:12:44.609Z,103205.97
2023-02-05T18:15:11.168Z,103197.16
2023-02-05T18:17:37.794Z,103199.94
2023-02-05T18:20:04.374Z,103203.56
2023-02-05T18:22:30.918Z,103201.63
2023-02-05T18:24:57.447Z,103201.63
2023-02-05T18:27:24.104Z,103210.56
2023-02-05T18:29:50.733Z,103215.03
2023-02-05T18:32:17.554Z,103221.19
2023-02-05T18:34:44.264Z,103215.88
2023-02-05T18:37:10.984Z,103209.00
2023-02-05T18:39:37.704Z,103215.28
2023-02-05T18:42:04.443Z,103223.16
2023-02-05T18:44:31.062Z,103225.91
2023-02-05T18:46:57.794Z,103232.31
2023-02-05T18:49:24.510Z,103231.47
2023-02-05T18:54:18.434Z,103235.91
2023-02-05T18:57:05.746Z,103240.16
2023-02-05T18:59:38.277Z,103242.69
2023-02-05T19:02:15.732Z,103238.13
2023-02-05T19:04:44.043Z,103244.13
2023-02-05T19:07:24.071Z,103244.13
2023-02-05T19:09:56.773Z,103253.81
2023-02-05T19:12:35.895Z,103246.81
2023-02-05T19:15:12.331Z,103254.53
2023-02-05T19:17:44.956Z,103253.69
2023-02-05T19:20:11.565Z,103263.50
2023-02-05T19:22:59.517Z,103266.88
2023-02-05T19:25:37.711Z,103275.69
2023-02-05T19:30:57.612Z,103265.88
2023-02-05T19:36:33.800Z,103283.56
2023-02-05T19:42:37.400Z,103273.03
2023-02-05T19:46:03.541Z,103274.00
2023-02-05T19:48:27.230Z,103265.06
2023-02-05T19:51:39.171Z,103277.50
2023-02-05T19:57:15.827Z,103276.78
2023-02-05T20:08:56.472Z,103275.69
2023-02-05T20:14:44.586Z,103257.09
2023-02-05T20:17:22.766Z,103259.84
2023-02-05T20:20:17.891Z,103272.19
2023-02-05T20:23:12.731Z,103275.81
2023-02-05T20:27:01.970Z,103274.94
2023-02-05T20:29:11.187Z,103282.81
2023-02-05T20:31:57.793Z,103282.81
2023-02-05T20:37:46.024Z,103298.63
2023-02-05T20:43:17.390Z,103295.97
2023-02-05T20:54:35.906Z,103297.94
2023-02-05T21:00:49.669Z,103296.31
2023-02-05T21:05:52.216Z,103308.56
2023-02-05T21:11:21.672Z,103298.03
2023-02-05T21:14:47.892Z,103291.00
2023-02-05T21:17:17.665Z,103292.72
2023-02-05T21:25:49.212Z,103298.88
2023-02-05T21:31:38.615Z,103303.47
2023-02-05T21:40:09.165Z,103335.47
2023-02-05T21:42:49.240Z,103327.63
2023-02-05T21:45:37.114Z,103329.44
2023-02-05T21:57:54.022Z,103353.47
2023-02-05T22:11:57.817Z,103377.84
2023-02-05T22:14:56.392Z,103368.28
2023-02-05T22:26:25.330Z,103380.13
2023-02-05T22:34:22.742Z,103384.59
2023-02-05T22:36:49.302Z,103389.06
2023-02-05T22:39:15.855Z,103395.09
2023-02-05T22:41:42.407Z,103377.56
2023-02-05T22:44:08.739Z,103390.97
2023-02-05T22:46:35.409Z,103388.19
2023-02-05T22:49:01.916Z,103378.44
2023-02-05T22:51:29.071Z,103364.16
2023-02-05T22:53:55.682Z,103372.91
2023-02-05T22:56:22.052Z,103368.41
2023-02-05T22:58:48.460Z,103364.81
2023-02-05T23:01:15.092Z,103370.84
2023-02-05T23:03:41.706Z,103380.50
2023-02-05T23:06:08.198Z,103389.34
2023-02-05T23:08:34.530Z,103393.56
2023-02-05T23:11:00.947Z,103399.84
2023-02-05T23:13:28.810Z,103390.06
2023-02-05T23:15:56.023Z,103395.25
2023-02-05T23:18:22.443Z,103391.78
2023-02-05T23:20:49.662Z,103382.06
2023-02-05T23:23:16.251Z,103381.13
2023-02-05T23:25:42.978Z,103380.16
2023-02-05T23:28:09.438Z,103381.97
2023-02-05T23:30:36.034Z,103371.22
2023-02-05T23:33:02.409Z,103357.22
2023-02-05T23:35:28.766Z,103366.88
2023-02-05T23:37:55.134Z,103356.25
2023-02-05T23:40:21.456Z,103355.50
2023-02-05T23:42:47.868Z,103352.63
2023-02-05T23:45:14.240Z,103352.72
2023-02-05T23:47:40.731Z,103350.06
2023-02-05T23:50:07.046Z,103336.69
2023-02-05T23:52:33.458Z,103329.69
2023-02-05T23:54:59.820Z,103324.34
2023-02-05T23:57:28.683Z,103324.34
2023-02-05T23:59:55.406Z,103330.66
